Hlavní strana
METAR-TAF:

METAR-TAF

Letiště :

Montichiari

Brescia, Itálie

zeměpisná šířka: 45-24-02N, zeměpisná délka: 010-18-59E, výška: 104 m

Aktuální stav počasí

Zpráva byla vytvořena před 1 hodinou a 28 minutami, v 16:50 UTC
Západní vítr 1 kt
Teplota 8°C
Vlhkost vzduchu 61%
Tlak 1024 hPa
Viditelnost 10 km a více
Žádná oblačnost pod 1500 m, nevyskytují se cumulonimby.

METAR: LIPO 171650Z 28001KT CAVOK 08/01 Q1024

Čas: 19:18 (18:18 UTC)

Předpověď počasí

Zpráva byla vytvořena před 1 hodinou a 18 minutami, v 17:00 UTC
Předpověď platná od 17 v 18 UTC do 18 v 18 UTC
vítr z různých směrů 5 kt
Viditelnost 10 km a více
Polojasno ve výšce 5000 ft

TAF: LIPO 171700Z 1718/1818 VRB05KT 9999 SCT050

Stav a předpovědi počasí z více než 4 000 letišť (zprávy METAR a TAF).

Červené a žluté tečky na mapě představují dostupné meteorologické stanice.

Když kurzor umístíte na tečku, zobrazí se název stanice.

Pak kliknutím zobrazíte stav a předpověď počasí.

Chcete-li změnit mapu, kliknutím na zelené tlačítko se znaménkem +mapu přiblížíte, kliknutím na zelené tlačítko se znaménkem – mapu oddálíte a kliknutím na zelené šipky přejdete na sousední mapy.


METAR-TAF: